Time;durP1;ratioP1;P1;durP2;ratioP2;P2;SDS_P1;SDS_P2;PMS_P1;PMS_P2;Temp;Humidity;BMP_temperature;BMP_pressure;BME280_temperature;BME280_humidity;BME280_pressure;Samples;Min_cycle;Max_cycle;Signal;HPM_P1;HPM_P2
2023/04/27 00:01:13;;;;;;;10.65;6.60;;;2.70;99.90;;;;;;5004353;28;20524;-56
2023/04/27 00:03:40;;;;;;;11.07;6.85;;;2.70;99.90;;;;;;5003856;28;20050;-54
2023/04/27 00:06:07;;;;;;;11.63;6.28;;;2.70;99.90;;;;;;5004410;28;20042;-51
2023/04/27 00:08:33;;;;;;;11.55;6.90;;;2.90;99.90;;;;;;5004371;28;20104;-55
2023/04/27 00:10:59;;;;;;;15.02;6.97;;;2.60;99.90;;;;;;5002813;28;20042;-52
2023/04/27 00:13:25;;;;;;;10.52;6.20;;;2.60;99.90;;;;;;5004326;28;20201;-56
2023/04/27 00:15:51;;;;;;;11.48;5.95;;;2.50;99.90;;;;;;5004100;28;20465;-53
2023/04/27 00:18:17;;;;;;;10.35;6.00;;;2.50;99.90;;;;;;5003055;28;20116;-57
2023/04/27 00:20:43;;;;;;;9.30;5.90;;;2.40;99.90;;;;;;5003885;28;20038;-54
2023/04/27 00:23:09;;;;;;;8.20;5.22;;;2.40;99.90;;;;;;5003698;28;20045;-54
2023/04/27 00:25:35;;;;;;;9.45;5.40;;;2.40;99.90;;;;;;5003167;28;20525;-50
2023/04/27 00:28:01;;;;;;;11.20;5.50;;;2.40;99.90;;;;;;5003080;28;20128;-55
2023/04/27 00:30:26;;;;;;;12.13;5.35;;;2.50;99.90;;;;;;5003637;28;20046;-56
2023/04/27 00:32:52;;;;;;;9.82;5.82;;;2.50;99.90;;;;;;5003581;28;20495;-51
2023/04/27 00:35:18;;;;;;;10.88;5.60;;;2.50;99.90;;;;;;5002768;28;20044;-55
2023/04/27 00:37:43;;;;;;;11.68;5.90;;;2.50;99.90;;;;;;5003661;28;20041;-51
2023/04/27 00:40:09;;;;;;;11.05;5.97;;;2.50;99.90;;;;;;5002923;28;20220;-56
2023/04/27 00:42:35;;;;;;;9.38;5.43;;;2.50;99.90;;;;;;5003550;28;20120;-54
2023/04/27 00:45:02;;;;;;;9.60;5.72;;;2.60;99.90;;;;;;5002329;28;20125;-52
2023/04/27 00:47:29;;;;;;;9.13;5.70;;;2.90;99.90;;;;;;5002675;28;20127;-56
2023/04/27 00:49:55;;;;;;;8.32;5.43;;;2.40;99.90;;;;;;5003493;28;20280;-56
2023/04/27 00:52:21;;;;;;;11.00;5.60;;;2.40;99.90;;;;;;5002719;28;20081;-53
2023/04/27 00:54:51;;;;;;;9.23;5.28;;;2.40;99.90;;;;;;5002995;28;20076;-56
2023/04/27 00:57:17;;;;;;;7.72;5.50;;;2.70;99.90;;;;;;5002944;28;20065;-51
2023/04/27 00:59:42;;;;;;;9.93;6.35;;;2.40;99.90;;;;;;5002500;28;20046;-56
2023/04/27 01:02:10;;;;;;;11.45;6.25;;;2.40;99.90;;;;;;5003019;28;20115;-53
2023/04/27 01:04:36;;;;;;;9.80;5.60;;;2.40;99.90;;;;;;5003466;28;20326;-56
2023/04/27 01:07:02;;;;;;;9.70;6.15;;;2.40;99.90;;;;;;5080719;22;20036;-54
2023/04/27 01:09:27;;;;;;;11.07;6.50;;;2.40;99.90;;;;;;4985980;28;20153;-56
2023/04/27 01:11:53;;;;;;;10.13;6.32;;;2.40;99.90;;;;;;4984256;28;20129;-56
2023/04/27 01:14:19;;;;;;;11.00;6.57;;;2.50;99.90;;;;;;4997346;28;20544;-54
2023/04/27 01:16:45;;;;;;;11.00;6.47;;;2.50;99.90;;;;;;5002236;28;20053;-55
2023/04/27 01:19:11;;;;;;;12.75;6.40;;;2.60;99.90;;;;;;5003075;28;20095;-55
2023/04/27 01:21:36;;;;;;;9.90;6.55;;;2.70;99.90;;;;;;5003174;28;20050;-56
2023/04/27 01:24:04;;;;;;;11.23;6.57;;;2.90;99.90;;;;;;5002113;28;20516;-55
2023/04/27 01:26:30;;;;;;;11.93;6.47;;;2.70;99.90;;;;;;5002459;28;20045;-57
2023/04/27 01:28:56;;;;;;;13.68;6.80;;;2.90;99.90;;;;;;5001653;28;20064;-53
2023/04/27 01:31:21;;;;;;;11.70;7.25;;;2.80;99.90;;;;;;5002784;28;20073;-50
2023/04/27 01:33:47;;;;;;;15.30;6.82;;;3.00;99.90;;;;;;5002450;28;20049;-54
2023/04/27 01:36:13;;;;;;;13.35;6.93;;;2.80;99.90;;;;;;5002458;28;20038;-56
2023/04/27 01:38:38;;;;;;;9.90;6.70;;;2.80;99.90;;;;;;5002780;28;20205;-55
2023/04/27 01:41:04;;;;;;;11.98;6.88;;;3.10;99.90;;;;;;4999828;28;20111;-54
2023/04/27 01:43:31;;;;;;;10.70;6.22;;;2.80;99.90;;;;;;5002894;28;20050;-52
2023/04/27 01:46:12;;;;;;;8.93;6.55;;;2.80;99.90;;;;;;5002584;28;20493;-55
2023/04/27 01:48:39;;;;;;;12.27;6.63;;;2.90;99.90;;;;;;5002098;28;20087;-54
2023/04/27 01:51:04;;;;;;;12.27;6.50;;;2.90;99.90;;;;;;5002682;28;20759;-54
2023/04/27 01:53:30;;;;;;;9.45;6.80;;;2.90;99.90;;;;;;5002920;28;20113;-51
2023/04/27 01:55:58;;;;;;;12.60;7.03;;;2.90;99.90;;;;;;5001386;28;20050;-56
2023/04/27 01:58:24;;;;;;;11.05;6.85;;;2.90;99.90;;;;;;5005551;28;20049;-54
2023/04/27 02:00:50;;;;;;;11.00;6.13;;;2.90;99.90;;;;;;5005517;28;20263;-56
2023/04/27 02:03:15;;;;;;;10.02;6.28;;;2.90;99.90;;;;;;5006089;28;20046;-48
2023/04/27 02:05:41;;;;;;;8.75;5.95;;;3.00;99.90;;;;;;5006616;28;20038;-55
2023/04/27 02:08:07;;;;;;;11.32;6.40;;;3.00;99.90;;;;;;5006335;28;20088;-56
2023/04/27 02:10:34;;;;;;;10.73;5.93;;;3.00;99.90;;;;;;5005363;28;20042;-53
2023/04/27 02:13:00;;;;;;;7.68;5.93;;;3.00;99.90;;;;;;5006138;28;20132;-55
2023/04/27 02:15:25;;;;;;;10.55;6.60;;;3.00;99.90;;;;;;5006218;28;20179;-53
2023/04/27 02:17:51;;;;;;;11.98;6.68;;;3.00;99.90;;;;;;5006406;28;20104;-56
2023/04/27 02:20:17;;;;;;;8.75;6.70;;;3.00;99.90;;;;;;5005463;28;20096;-50
2023/04/27 02:22:43;;;;;;;8.93;6.07;;;2.90;99.90;;;;;;5005960;28;20619;-56
2023/04/27 02:25:10;;;;;;;10.38;6.00;;;2.80;99.90;;;;;;5005447;28;20072;-52
2023/04/27 02:27:42;;;;;;;11.57;6.60;;;2.80;99.90;;;;;;5006011;28;20623;-54
2023/04/27 02:30:09;;;;;;;9.27;6.10;;;2.80;99.90;;;;;;5006018;28;20100;-56
2023/04/27 02:32:35;;;;;;;10.35;6.35;;;2.80;99.90;;;;;;5006385;28;20053;-54
2023/04/27 02:35:01;;;;;;;9.75;6.10;;;2.70;99.90;;;;;;5006040;28;20440;-50
2023/04/27 02:37:27;;;;;;;9.75;6.43;;;3.00;99.90;;;;;;5005274;28;20389;-56
2023/04/27 02:39:53;;;;;;;14.43;7.38;;;2.50;99.90;;;;;;5003597;28;20398;-56
2023/04/27 02:42:18;;;;;;;14.57;8.43;;;2.50;99.90;;;;;;5005598;28;20046;-56
2023/04/27 02:44:44;;;;;;;19.83;8.43;;;2.40;99.90;;;;;;5005140;28;20128;-54
2023/04/27 02:47:10;;;;;;;13.43;8.23;;;2.40;99.90;;;;;;5005989;28;20575;-56
2023/04/27 02:49:36;;;;;;;18.27;8.23;;;2.30;99.90;;;;;;5005843;28;20436;-52
2023/04/27 02:52:02;;;;;;;16.70;8.77;;;2.30;99.90;;;;;;5005622;28;20050;-55
2023/04/27 02:54:27;;;;;;;18.05;7.88;;;2.20;99.90;;;;;;5005523;28;20048;-54
2023/04/27 02:56:53;;;;;;;15.88;7.78;;;2.20;99.90;;;;;;5004744;28;20054;-55
2023/04/27 02:59:19;;;;;;;14.45;7.40;;;2.10;99.90;;;;;;5005841;28;20046;-52
2023/04/27 03:01:45;;;;;;;11.38;6.63;;;2.10;99.90;;;;;;5004860;28;20077;-56
2023/04/27 03:04:12;;;;;;;15.95;7.03;;;2.10;99.90;;;;;;5005467;28;20053;-56
2023/04/27 03:06:40;;;;;;;12.75;6.82;;;2.10;99.90;;;;;;5005189;28;20044;-56
2023/04/27 03:09:05;;;;;;;12.13;6.93;;;1.00;99.90;;;;;;5003280;28;20096;-51
2023/04/27 03:11:31;;;;;;;12.88;7.53;;;2.10;99.90;;;;;;5004801;28;20077;-55
2023/04/27 03:13:57;;;;;;;11.63;7.63;;;2.00;99.90;;;;;;5005526;28;20085;-56
2023/04/27 03:16:23;;;;;;;14.35;8.35;;;2.20;99.90;;;;;;5005098;28;20391;-56
2023/04/27 03:18:48;;;;;;;12.25;7.80;;;2.00;99.90;;;;;;5004977;28;20133;-55
2023/04/27 03:21:15;;;;;;;11.90;7.97;;;2.00;99.90;;;;;;5004766;28;20120;-52
2023/04/27 03:23:41;;;;;;;12.07;8.20;;;2.50;99.90;;;;;;5005311;28;20054;-56
2023/04/27 03:26:08;;;;;;;13.25;7.35;;;2.50;99.90;;;;;;5003323;28;20094;-51
2023/04/27 03:28:34;;;;;;;9.77;7.13;;;2.00;99.90;;;;;;5004359;28;20073;-54
2023/04/27 03:31:00;;;;;;;13.00;7.50;;;2.00;99.90;;;;;;5005101;28;20092;-53
2023/04/27 03:33:27;;;;;;;11.07;6.68;;;1.90;99.90;;;;;;5004429;28;20106;-56
2023/04/27 03:35:56;;;;;;;9.48;6.53;;;1.80;99.90;;;;;;5004517;28;20057;-52
2023/04/27 03:38:25;;;;;;;12.80;7.18;;;1.80;99.90;;;;;;5004402;28;20046;-49
2023/04/27 03:40:51;;;;;;;23.45;9.50;;;1.80;99.90;;;;;;5003659;28;20117;-56
2023/04/27 03:43:18;;;;;;;21.85;9.75;;;1.70;99.90;;;;;;5005093;28;20046;-49
2023/04/27 03:45:44;;;;;;;22.05;9.25;;;1.60;99.90;;;;;;5004917;28;20046;-56
2023/04/27 03:48:10;;;;;;;20.15;9.02;;;1.60;99.90;;;;;;5004669;28;20038;-52
2023/04/27 03:50:36;;;;;;;18.50;9.23;;;1.60;99.90;;;;;;5004295;28;20056;-55
2023/04/27 03:53:02;;;;;;;16.75;7.40;;;1.50;99.90;;;;;;5003439;28;20046;-54
2023/04/27 03:55:28;;;;;;;19.00;8.30;;;1.40;99.90;;;;;;5003724;28;20073;-56
2023/04/27 03:57:54;;;;;;;16.67;8.38;;;1.40;99.90;;;;;;5002970;28;20451;-56
2023/04/27 04:00:19;;;;;;;12.98;7.88;;;1.80;99.90;;;;;;5004002;28;20120;-55
2023/04/27 04:02:45;;;;;;;16.63;8.23;;;2.40;99.90;;;;;;5004426;28;20085;-56
2023/04/27 04:05:13;;;;;;;16.85;8.68;;;1.40;99.90;;;;;;5004121;28;20268;-52
2023/04/27 04:07:40;;;;;;;15.32;7.88;;;1.40;99.90;;;;;;5004022;28;20054;-47
2023/04/27 04:10:07;;;;;;;10.90;7.20;;;1.40;99.90;;;;;;5002740;28;20068;-54
2023/04/27 04:12:33;;;;;;;13.73;7.38;;;1.40;99.90;;;;;;5003164;28;20089;-56
2023/04/27 04:14:58;;;;;;;12.75;7.47;;;2.10;99.90;;;;;;5003196;28;20072;-55
2023/04/27 04:17:24;;;;;;;13.70;7.10;;;1.50;99.90;;;;;;5004125;28;20068;-53
2023/04/27 04:19:50;;;;;;;12.32;7.78;;;1.60;99.90;;;;;;5003637;28;20072;-52
2023/04/27 04:22:16;;;;;;;13.13;8.15;;;1.50;99.90;;;;;;5003355;28;20057;-52
2023/04/27 04:24:42;;;;;;;10.60;7.18;;;1.50;99.90;;;;;;5003324;28;20403;-50
2023/04/27 04:27:08;;;;;;;11.55;7.28;;;1.40;99.90;;;;;;5004397;28;20052;-50
2023/04/27 04:29:34;;;;;;;13.20;7.85;;;2.60;99.90;;;;;;5004262;28;20033;-50
2023/04/27 04:31:59;;;;;;;10.25;7.00;;;1.80;99.90;;;;;;5003741;28;20072;-56
2023/04/27 04:34:26;;;;;;;10.48;7.15;;;1.30;99.90;;;;;;5003782;28;20046;-55
2023/04/27 04:36:51;;;;;;;10.32;7.10;;;1.40;99.90;;;;;;5003483;28;20405;-56
2023/04/27 04:39:21;;;;;;;13.40;7.28;;;1.40;99.90;;;;;;5003057;28;20046;-52
2023/04/27 04:41:48;;;;;;;10.98;7.22;;;1.40;99.90;;;;;;5003158;28;20038;-56
2023/04/27 04:44:14;;;;;;;11.15;7.13;;;1.50;99.90;;;;;;5003474;28;20050;-53
2023/04/27 04:46:41;;;;;;;11.02;7.18;;;1.50;99.90;;;;;;5002958;28;20133;-54
2023/04/27 04:49:06;;;;;;;12.60;7.13;;;2.20;99.90;;;;;;5003739;28;20046;-49
2023/04/27 04:51:32;;;;;;;11.20;7.38;;;1.60;99.90;;;;;;5003424;28;20408;-53
2023/04/27 04:53:58;;;;;;;11.82;7.28;;;2.20;99.90;;;;;;5003085;28;20049;-52
2023/04/27 04:56:23;;;;;;;11.88;8.25;;;1.70;99.90;;;;;;5002543;28;20064;-53
2023/04/27 04:58:49;;;;;;;12.38;7.30;;;1.90;99.90;;;;;;5003274;28;20037;-54
2023/04/27 05:01:15;;;;;;;12.52;7.60;;;2.10;99.90;;;;;;5003202;28;20418;-55
2023/04/27 05:03:41;;;;;;;11.95;7.57;;;2.50;99.90;;;;;;5002569;28;20041;-51
2023/04/27 05:06:06;;;;;;;11.85;7.20;;;3.00;99.90;;;;;;5003510;28;20068;-56
2023/04/27 05:08:32;;;;;;;12.88;8.30;;;3.30;99.90;;;;;;5002962;28;20492;-53
2023/04/27 05:10:58;;;;;;;16.67;9.60;;;4.00;99.90;;;;;;5001848;28;20050;-50
2023/04/27 05:13:24;;;;;;;13.20;8.98;;;3.80;99.90;;;;;;5003191;28;20053;-56
2023/04/27 05:15:50;;;;;;;14.15;8.38;;;3.90;99.90;;;;;;5003579;28;20080;-52
2023/04/27 05:18:16;;;;;;;17.10;7.82;;;4.00;99.90;;;;;;5003386;28;20330;-55
2023/04/27 05:20:42;;;;;;;12.00;7.53;;;4.00;99.90;;;;;;5002519;28;20117;-54
2023/04/27 05:23:07;;;;;;;14.48;8.75;;;4.50;99.90;;;;;;5003303;28;20286;-55
2023/04/27 05:25:40;;;;;;;13.02;9.10;;;4.40;99.90;;;;;;5002326;28;20065;-50
2023/04/27 05:28:07;;;;;;;12.43;8.35;;;4.50;99.90;;;;;;5002405;28;20442;-55
2023/04/27 05:30:33;;;;;;;13.13;9.23;;;4.40;99.90;;;;;;5002838;28;20045;-51
2023/04/27 05:32:59;;;;;;;11.82;8.57;;;4.60;99.90;;;;;;5002175;28;20045;-55
2023/04/27 05:35:24;;;;;;;13.30;9.32;;;4.80;99.90;;;;;;5002027;28;20057;-53
2023/04/27 05:37:50;;;;;;;14.85;9.18;;;5.00;99.90;;;;;;5002668;28;20080;-54
2023/04/27 05:40:16;;;;;;;15.48;9.18;;;5.30;99.90;;;;;;5002061;28;20041;-50
2023/04/27 05:42:41;;;;;;;14.00;8.55;;;5.60;99.90;;;;;;5002927;28;20046;-56
2023/04/27 05:45:07;;;;;;;14.00;8.35;;;6.00;99.90;;;;;;5002007;28;20057;-53
2023/04/27 05:47:33;;;;;;;13.30;8.32;;;6.20;99.90;;;;;;5002388;28;20283;-55
2023/04/27 05:49:58;;;;;;;10.38;7.30;;;6.40;99.90;;;;;;5001437;28;20045;-53
2023/04/27 05:52:29;;;;;;;11.43;8.30;;;6.50;99.90;;;;;;5000799;28;20533;-55
2023/04/27 05:54:55;;;;;;;11.13;7.55;;;6.60;99.90;;;;;;5000364;28;20074;-52
2023/04/27 05:57:21;;;;;;;11.98;8.15;;;6.60;99.90;;;;;;5002922;28;20095;-55
2023/04/27 05:59:47;;;;;;;10.82;7.65;;;6.60;99.90;;;;;;5001694;28;20049;-53
2023/04/27 06:02:12;;;;;;;9.52;7.25;;;6.70;99.90;;;;;;5002378;28;20125;-53
2023/04/27 06:04:39;;;;;;;8.27;6.63;;;6.90;99.90;;;;;;5002270;28;20041;-55
2023/04/27 06:07:11;;;;;;;9.27;7.00;;;7.00;99.90;;;;;;5000708;28;20061;-56
2023/04/27 06:09:37;;;;;;;14.77;6.93;;;7.20;99.90;;;;;;5001489;28;20053;-52
2023/04/27 06:12:04;;;;;;;11.02;6.80;;;7.40;99.90;;;;;;5002382;28;20378;-55
2023/04/27 06:14:32;;;;;;;10.02;6.57;;;7.60;99.90;;;;;;5002061;28;20042;-54
2023/04/27 06:16:58;;;;;;;10.02;5.97;;;7.90;99.90;;;;;;5002136;28;20046;-55
2023/04/27 06:19:24;;;;;;;8.35;6.13;;;8.10;99.90;;;;;;5002154;28;20048;-55
2023/04/27 06:21:50;;;;;;;9.73;6.47;;;8.10;99.90;;;;;;5002353;28;20050;-53
2023/04/27 06:24:15;;;;;;;9.13;5.93;;;8.30;99.90;;;;;;5000970;28;20073;-54
2023/04/27 06:26:41;;;;;;;8.30;5.80;;;8.50;99.90;;;;;;5002445;28;20038;-56
2023/04/27 06:29:07;;;;;;;9.82;6.22;;;8.70;99.90;;;;;;5001771;28;20052;-52
2023/04/27 06:31:33;;;;;;;10.05;6.45;;;8.80;99.90;;;;;;5001319;28;20092;-54
2023/04/27 06:33:59;;;;;;;8.80;6.00;;;9.00;99.90;;;;;;5002131;28;20370;-50
2023/04/27 06:36:28;;;;;;;10.50;5.38;;;9.50;99.90;;;;;;5002022;28;20121;-53
2023/04/27 06:38:55;;;;;;;8.07;5.45;;;9.50;99.90;;;;;;5001726;28;20909;-55
2023/04/27 06:41:21;;;;;;;9.68;5.75;;;9.60;99.90;;;;;;5000945;28;20447;-55
2023/04/27 06:43:47;;;;;;;8.38;5.80;;;9.60;99.90;;;;;;5004157;28;20100;-50
2023/04/27 06:46:13;;;;;;;10.05;5.78;;;9.80;99.90;;;;;;5006291;28;20217;-57
2023/04/27 06:48:39;;;;;;;8.98;5.20;;;9.80;99.90;;;;;;5005199;28;20124;-47
2023/04/27 06:51:05;;;;;;;9.02;5.65;;;9.70;99.90;;;;;;5005631;28;20042;-55
2023/04/27 06:53:31;;;;;;;9.93;5.13;;;9.60;99.90;;;;;;5005887;28;20050;-51
2023/04/27 06:55:57;;;;;;;9.50;5.35;;;9.40;99.90;;;;;;5004693;28;20038;-55
2023/04/27 06:58:22;;;;;;;9.63;4.90;;;9.40;99.90;;;;;;5006001;28;20248;-52
2023/04/27 07:00:48;;;;;;;13.63;6.18;;;9.20;99.90;;;;;;5005655;28;20065;-48
2023/04/27 07:03:13;;;;;;;7.35;5.03;;;9.10;99.90;;;;;;5004580;28;20100;-55
2023/04/27 07:05:39;;;;;;;10.18;5.22;;;9.40;99.90;;;;;;5004495;28;20046;-54
2023/04/27 07:08:05;;;;;;;7.43;5.10;;;9.60;99.90;;;;;;5005674;28;20152;-52
2023/04/27 07:10:31;;;;;;;8.60;4.78;;;9.60;99.90;;;;;;5004720;28;20070;-51
2023/04/27 07:12:57;;;;;;;9.10;5.05;;;9.60;99.90;;;;;;5003749;28;20042;-53
2023/04/27 07:15:23;;;;;;;10.23;4.78;;;9.70;99.90;;;;;;5005072;28;20133;-52
2023/04/27 07:17:52;;;;;;;8.80;5.00;;;9.70;99.90;;;;;;5005360;28;20053;-55
2023/04/27 07:20:18;;;;;;;10.20;5.55;;;9.80;99.90;;;;;;5004245;28;20120;-50
2023/04/27 07:22:44;;;;;;;8.10;4.93;;;10.00;99.90;;;;;;5005486;28;20084;-53
2023/04/27 07:25:10;;;;;;;8.45;4.75;;;10.10;99.90;;;;;;5003990;28;20037;-53
2023/04/27 07:27:36;;;;;;;6.07;4.05;;;10.20;99.90;;;;;;5005071;28;20057;-55
2023/04/27 07:30:02;;;;;;;6.60;3.85;;;10.00;99.90;;;;;;5004087;28;20036;-52
2023/04/27 07:32:27;;;;;;;12.02;4.50;;;9.90;99.90;;;;;;5005145;28;20496;-53
2023/04/27 07:34:56;;;;;;;6.97;3.35;;;10.00;99.90;;;;;;5003491;28;20133;-46
2023/04/27 07:37:22;;;;;;;7.88;3.80;;;9.90;99.90;;;;;;5003975;28;20063;-56
2023/04/27 07:39:50;;;;;;;8.35;3.92;;;10.00;99.90;;;;;;5003824;28;20057;-51
2023/04/27 07:42:17;;;;;;;9.63;4.22;;;10.00;99.90;;;;;;5004661;28;20046;-48
2023/04/27 07:44:43;;;;;;;9.65;4.25;;;10.20;99.90;;;;;;5004019;28;20416;-55
2023/04/27 07:47:09;;;;;;;6.78;3.90;;;10.30;99.90;;;;;;5004800;28;20041;-51
2023/04/27 07:49:36;;;;;;;6.60;3.33;;;10.30;99.90;;;;;;5004252;28;20081;-54
2023/04/27 07:52:03;;;;;;;7.90;4.32;;;10.20;99.90;;;;;;5004440;28;20070;-55
2023/04/27 07:54:29;;;;;;;7.13;4.15;;;10.10;99.90;;;;;;5002169;28;20049;-53
2023/04/27 07:56:54;;;;;;;6.13;4.00;;;10.30;99.90;;;;;;5004828;28;20068;-57
2023/04/27 07:59:20;;;;;;;8.98;4.82;;;10.50;99.90;;;;;;5004272;28;20145;-54
2023/04/27 08:01:46;;;;;;;5.45;3.90;;;10.50;99.90;;;;;;5004403;28;20104;-55
2023/04/27 08:04:12;;;;;;;5.82;3.72;;;10.40;99.90;;;;;;5004263;28;20520;-53
2023/04/27 08:06:38;;;;;;;8.48;4.45;;;10.50;99.90;;;;;;5004269;28;20343;-53
2023/04/27 08:09:04;;;;;;;7.90;4.57;;;10.40;99.90;;;;;;5003495;28;20408;-55
2023/04/27 08:11:30;;;;;;;6.13;4.22;;;10.60;99.90;;;;;;5001821;28;20056;-55
2023/04/27 08:13:56;;;;;;;6.05;3.85;;;10.70;99.90;;;;;;4985936;28;20058;-55
2023/04/27 08:16:21;;;;;;;6.85;4.22;;;10.60;99.30;;;;;;5002072;28;20050;-52
2023/04/27 08:18:48;;;;;;;7.10;4.53;;;10.60;99.20;;;;;;5001883;28;20061;-50
2023/04/27 08:21:14;;;;;;;7.93;4.15;;;10.70;98.70;;;;;;4999902;28;20041;-60
2023/04/27 08:23:41;;;;;;;10.23;4.57;;;10.70;97.60;;;;;;5002060;28;20523;-56
2023/04/27 08:26:06;;;;;;;9.55;4.57;;;10.60;97.70;;;;;;5000380;28;20080;-51
2023/04/27 08:28:32;;;;;;;12.45;5.40;;;10.50;98.10;;;;;;5000921;28;20057;-54
2023/04/27 08:30:58;;;;;;;10.05;4.90;;;10.60;98.40;;;;;;5001668;28;20119;-56
2023/04/27 08:33:24;;;;;;;7.65;4.50;;;10.60;98.50;;;;;;5001769;28;20684;-60
2023/04/27 08:35:52;;;;;;;6.38;4.50;;;10.80;98.30;;;;;;5000437;28;20113;-58
2023/04/27 08:38:18;;;;;;;7.32;3.63;;;10.80;97.70;;;;;;5001331;28;20132;-53
2023/04/27 08:40:44;;;;;;;6.13;4.13;;;10.80;96.40;;;;;;5001376;28;20048;-57
2023/04/27 08:43:10;;;;;;;9.45;4.20;;;10.90;95.70;;;;;;5000108;28;20050;-51
2023/04/27 08:45:35;;;;;;;7.93;4.25;;;10.90;95.80;;;;;;5001167;28;20050;-61
2023/04/27 08:48:01;;;;;;;7.25;3.70;;;10.90;95.10;;;;;;4999129;28;20045;-59
2023/04/27 08:50:27;;;;;;;7.80;3.95;;;11.00;95.50;;;;;;4999795;28;20263;-61
2023/04/27 08:52:53;;;;;;;6.35;3.60;;;11.00;93.40;;;;;;5000471;28;20042;-53
2023/04/27 08:55:18;;;;;;;6.03;3.75;;;11.00;93.50;;;;;;5000208;28;20065;-60
2023/04/27 08:57:55;;;;;;;6.32;3.90;;;11.00;94.50;;;;;;5000527;28;20038;-59
2023/04/27 09:00:21;;;;;;;6.35;4.00;;;11.00;94.30;;;;;;5000346;28;20140;-52
2023/04/27 09:02:47;;;;;;;6.10;3.70;;;11.10;94.90;;;;;;5001471;28;20121;-50
2023/04/27 09:05:17;;;;;;;5.57;3.60;;;11.30;94.60;;;;;;5000711;28;20472;-53
2023/04/27 09:07:54;;;;;;;5.80;3.33;;;11.50;93.40;;;;;;5000154;28;20058;-53
2023/04/27 09:10:22;;;;;;;6.13;3.40;;;11.60;93.70;;;;;;5000523;28;20045;-55
2023/04/27 09:12:58;;;;;;;7.70;4.20;;;11.90;93.10;;;;;;5000821;28;20077;-59
2023/04/27 09:15:24;;;;;;;5.03;3.33;;;11.80;93.00;;;;;;4999124;28;20079;-55
2023/04/27 09:17:56;;;;;;;5.90;3.15;;;11.90;92.40;;;;;;5001506;28;20412;-56
2023/04/27 09:20:22;;;;;;;6.47;3.38;;;12.00;92.90;;;;;;5000737;28;20049;-62
2023/04/27 09:22:54;;;;;;;6.70;3.67;;;12.20;91.20;;;;;;5000645;28;20405;-60
2023/04/27 09:25:24;;;;;;;4.82;3.28;;;12.10;90.40;;;;;;4998718;28;20056;-57
2023/04/27 09:27:50;;;;;;;7.00;3.90;;;12.10;89.50;;;;;;5000413;28;20310;-54
2023/04/27 09:30:16;;;;;;;6.47;4.00;;;12.00;91.00;;;;;;4999668;28;20072;-56
2023/04/27 09:32:52;;;;;;;8.23;3.67;;;12.30;91.40;;;;;;4999441;28;20034;-55
2023/04/27 09:35:26;;;;;;;6.20;3.60;;;12.30;90.30;;;;;;5000900;28;20148;-60
2023/04/27 09:37:53;;;;;;;7.28;3.90;;;12.20;88.80;;;;;;4999096;28;20209;-53
2023/04/27 09:40:28;;;;;;;9.23;3.97;;;12.00;89.00;;;;;;4999874;28;20053;-61
2023/04/27 09:43:02;;;;;;;5.80;3.83;;;11.80;90.00;;;;;;4999605;28;20050;-50
2023/04/27 09:45:28;;;;;;;8.23;4.00;;;11.70;89.00;;;;;;5000827;28;20457;-56
2023/04/27 09:47:54;;;;;;;6.70;3.97;;;11.50;89.20;;;;;;5000332;28;20419;-59
2023/04/27 09:50:20;;;;;;;6.57;3.90;;;11.40;90.50;;;;;;5000881;28;20045;-61
2023/04/27 09:52:46;;;;;;;7.97;3.60;;;11.40;89.50;;;;;;5000391;28;20069;-59
2023/04/27 09:55:29;;;;;;;7.32;3.88;;;11.50;90.30;;;;;;4999334;28;20054;-60
2023/04/27 09:58:20;;;;;;;7.65;3.92;;;11.60;89.80;;;;;;4998063;28;20060;-50
2023/04/27 10:01:07;;;;;;;6.85;4.00;;;11.60;90.40;;;;;;5003217;28;20141;-51
2023/04/27 10:04:12;;;;;;;6.03;3.75;;;11.90;90.70;;;;;;5003324;28;20046;-60
2023/04/27 10:06:58;;;;;;;6.72;4.30;;;11.90;90.20;;;;;;5000555;28;20065;-61
2023/04/27 10:09:25;;;;;;;8.57;3.95;;;12.00;89.30;;;;;;5000952;28;20056;-59
2023/04/27 10:11:52;;;;;;;9.55;4.25;;;11.80;89.60;;;;;;5001651;28;20665;-50
2023/04/27 10:14:20;;;;;;;7.35;4.63;;;11.80;88.70;;;;;;5003332;28;20456;-61
2023/04/27 10:16:50;;;;;;;7.28;4.32;;;11.70;89.80;;;;;;5003355;28;20049;-53
2023/04/27 10:19:16;;;;;;;7.32;4.63;;;11.70;89.20;;;;;;5005742;28;20424;-56
2023/04/27 10:21:55;;;;;;;7.82;5.00;;;11.80;88.70;;;;;;5007460;28;20050;-59
2023/04/27 10:24:37;;;;;;;8.43;4.63;;;11.60;89.80;;;;;;5006523;28;20111;-56
2023/04/27 10:27:06;;;;;;;8.00;4.78;;;11.70;90.30;;;;;;5006280;28;20042;-61
2023/04/27 10:29:40;;;;;;;8.38;4.50;;;11.70;90.40;;;;;;5006998;28;20058;-54
2023/04/27 10:32:27;;;;;;;8.13;4.85;;;11.80;89.30;;;;;;5006224;28;20038;-61
2023/04/27 10:35:05;;;;;;;8.30;4.68;;;11.90;86.70;;;;;;5006732;28;20041;-49
2023/04/27 10:37:43;;;;;;;6.38;4.10;;;11.70;88.00;;;;;;5006526;28;20380;-56
2023/04/27 10:40:14;;;;;;;6.45;4.30;;;11.60;89.30;;;;;;5005460;28;20037;-59
2023/04/27 10:42:40;;;;;;;10.13;4.60;;;11.60;90.00;;;;;;5007468;28;20064;-61
2023/04/27 10:45:07;;;;;;;7.32;4.45;;;11.60;89.70;;;;;;5006136;28;20459;-59
2023/04/27 10:47:41;;;;;;;7.13;4.88;;;11.70;90.10;;;;;;5006602;28;20050;-59
2023/04/27 10:50:10;;;;;;;9.50;4.28;;;11.70;88.70;;;;;;5009821;28;20314;-58
2023/04/27 10:52:42;;;;;;;11.02;4.93;;;11.50;87.90;;;;;;5026037;28;20111;-59
2023/04/27 10:55:16;;;;;;;7.57;4.47;;;11.50;87.60;;;;;;5024115;28;20053;-66
2023/04/27 10:57:54;;;;;;;6.75;4.25;;;11.40;89.60;;;;;;5024829;28;20187;-64
2023/04/27 11:00:36;;;;;;;7.32;4.80;;;11.40;90.00;;;;;;5023179;28;20077;-58
2023/04/27 11:03:17;;;;;;;6.88;4.65;;;11.50;90.10;;;;;;5020843;28;20050;-57
2023/04/27 11:05:44;;;;;;;7.75;5.18;;;11.50;88.40;;;;;;5022129;28;20115;-56
2023/04/27 11:08:12;;;;;;;7.85;5.13;;;11.50;87.80;;;;;;5023500;28;20092;-55
2023/04/27 11:10:49;;;;;;;8.32;4.72;;;11.30;89.00;;;;;;5022832;28;20121;-55
2023/04/27 11:13:20;;;;;;;9.27;4.82;;;11.30;88.10;;;;;;5023422;28;20125;-58
2023/04/27 11:15:47;;;;;;;5.65;4.50;;;11.20;88.90;;;;;;5023197;28;20088;-59
2023/04/27 11:18:14;;;;;;;7.78;4.78;;;11.20;90.00;;;;;;5024678;28;20075;-55
2023/04/27 11:20:40;;;;;;;7.07;4.70;;;11.30;90.00;;;;;;5015974;28;20076;-59
2023/04/27 11:23:06;;;;;;;7.07;4.55;;;11.30;90.10;;;;;;5011889;28;20034;-54
2023/04/27 11:25:32;;;;;;;9.15;4.30;;;11.40;90.40;;;;;;5009809;28;20050;-61
2023/04/27 11:27:58;;;;;;;5.75;4.28;;;11.50;90.60;;;;;;5005163;28;20499;-53
2023/04/27 11:30:23;;;;;;;8.93;4.68;;;11.50;90.60;;;;;;5003307;28;20137;-61
2023/04/27 11:32:50;;;;;;;7.63;4.53;;;11.60;90.70;;;;;;5003771;28;20137;-58
2023/04/27 11:35:17;;;;;;;6.43;4.78;;;11.60;90.40;;;;;;5002104;28;20156;-55
2023/04/27 11:37:43;;;;;;;8.57;4.85;;;11.70;90.60;;;;;;5002950;28;20045;-48
2023/04/27 11:40:12;;;;;;;6.88;4.78;;;11.80;90.20;;;;;;4982863;28;20245;-59
2023/04/27 11:42:42;;;;;;;9.63;4.43;;;11.90;90.20;;;;;;4984397;28;20051;-54
2023/04/27 11:45:10;;;;;;;8.65;4.70;;;12.00;90.60;;;;;;4985475;28;20058;-60
2023/04/27 11:47:36;;;;;;;9.50;4.40;;;12.20;90.40;;;;;;4983217;28;20125;-55
2023/04/27 11:50:06;;;;;;;7.35;4.45;;;12.30;90.20;;;;;;4983300;28;20084;-55
2023/04/27 11:52:33;;;;;;;9.65;4.20;;;12.40;90.40;;;;;;4984435;28;20038;-53
2023/04/27 11:55:00;;;;;;;8.23;3.80;;;12.50;90.20;;;;;;4984503;28;20048;-50
2023/04/27 11:57:28;;;;;;;5.53;3.90;;;12.50;90.50;;;;;;4984136;28;20100;-59
2023/04/27 11:59:55;;;;;;;5.63;3.63;;;12.70;90.50;;;;;;4984443;28;20061;-59
2023/04/27 12:02:22;;;;;;;7.35;4.10;;;13.00;90.30;;;;;;4983501;28;20129;-56
2023/04/27 12:04:50;;;;;;;7.50;4.15;;;13.20;90.20;;;;;;4984769;28;20138;-61
2023/04/27 12:07:17;;;;;;;6.65;4.30;;;13.30;88.60;;;;;;4984749;28;20062;-60
2023/04/27 12:09:43;;;;;;;9.05;4.65;;;13.30;89.80;;;;;;4984033;28;20615;-60
2023/04/27 12:12:10;;;;;;;6.88;4.25;;;13.30;90.00;;;;;;4984112;28;20129;-58
2023/04/27 12:14:35;;;;;;;6.85;4.05;;;13.40;89.10;;;;;;4983248;28;20059;-55
2023/04/27 12:17:01;;;;;;;6.78;3.95;;;13.20;89.00;;;;;;4985002;28;20381;-59
2023/04/27 12:19:27;;;;;;;5.90;4.13;;;13.20;89.60;;;;;;4984312;28;20142;-61
2023/04/27 12:21:52;;;;;;;7.20;4.15;;;13.30;89.90;;;;;;4984376;28;20078;-53
2023/04/27 12:24:19;;;;;;;7.60;4.10;;;13.40;90.00;;;;;;4983818;28;20038;-55
2023/04/27 12:26:45;;;;;;;8.05;4.20;;;13.50;90.30;;;;;;4984130;28;20420;-60
2023/04/27 12:29:11;;;;;;;7.60;4.70;;;13.60;89.70;;;;;;4983759;28;20448;-54
2023/04/27 12:31:37;;;;;;;6.30;4.55;;;13.60;89.40;;;;;;4984633;28;20050;-58
2023/04/27 12:34:03;;;;;;;8.32;4.47;;;13.60;89.50;;;;;;4984225;28;20042;-52
2023/04/27 12:36:28;;;;;;;5.60;4.28;;;13.60;89.00;;;;;;4983809;28;20101;-57
2023/04/27 12:38:59;;;;;;;8.63;4.60;;;13.60;89.60;;;;;;4983484;28;20046;-52
2023/04/27 12:41:25;;;;;;;9.02;4.57;;;13.70;89.10;;;;;;4984181;28;20038;-56
2023/04/27 12:43:51;;;;;;;8.90;4.15;;;13.80;89.60;;;;;;4984572;28;20042;-60
2023/04/27 12:46:17;;;;;;;10.18;4.70;;;13.80;87.20;;;;;;4983418;28;20256;-59
2023/04/27 12:48:43;;;;;;;8.00;4.90;;;13.60;87.70;;;;;;4984113;28;20465;-54